Time,TemperatureF,DewpointF,PressureIn,WindDirection,WindDirectionDegrees,WindSpeedMPH,WindSpeedGustMPH,Humidity,HourlyPrecipIn,Conditions,Clouds,dailyrainin,SoftwareType,DateUTC
2013-07-21 00:01:00,68.0,65.0,30.08,South,173,0.0,3.0,90,0.00,,,0.04,,2013-07-21 04:01:00,
2013-07-21 00:11:00,68.0,65.0,30.08,South,173,0.0,3.0,90,0.00,,,0.04,,2013-07-21 04:11:00,
2013-07-21 00:22:00,68.0,65.0,30.08,South,173,0.0,3.0,90,0.00,,,0.04,,2013-07-21 04:22:00,
2013-07-21 00:32:00,67.0,64.0,30.08,South,173,0.0,1.0,91,0.00,,,0.04,,2013-07-21 04:32:00,
2013-07-21 00:43:00,67.0,64.0,30.07,South,173,0.0,1.0,91,0.00,,,0.04,,2013-07-21 04:43:00,
2013-07-21 00:53:00,67.0,64.0,30.07,South,173,0.0,1.0,91,0.00,,,0.04,,2013-07-21 04:53:00,
2013-07-21 01:02:00,67.0,64.0,30.07,South,173,0.0,2.0,89,0.00,,,0.04,,2013-07-21 05:02:00,
2013-07-21 01:11:00,67.0,64.0,30.06,South,173,0.0,3.0,89,0.00,,,0.04,,2013-07-21 05:11:00,
2013-07-21 01:22:00,67.0,64.0,30.06,South,173,0.0,3.0,89,0.00,,,0.04,,2013-07-21 05:22:00,
2013-07-21 01:32:00,67.0,64.0,30.06,South,170,1.0,7.0,89,0.00,,,0.04,,2013-07-21 05:32:00,
2013-07-21 01:42:00,67.0,64.0,30.06,SSE,167,2.0,9.0,91,0.00,,,0.04,,2013-07-21 05:42:00,
2013-07-21 01:52:00,67.0,64.0,30.06,SSE,167,2.0,9.0,91,0.00,,,0.04,,2013-07-21 05:52:00,
2013-07-21 02:01:00,68.0,65.0,30.05,South,169,2.0,9.0,90,0.00,,,0.04,,2013-07-21 06:01:00,
2013-07-21 02:11:00,67.0,64.0,30.05,SSE,167,2.0,7.0,91,0.00,,,0.04,,2013-07-21 06:11:00,
2013-07-21 02:22:00,67.0,64.0,30.05,SSE,167,2.0,7.0,91,0.00,,,0.04,,2013-07-21 06:22:00,
2013-07-21 02:32:00,67.0,65.0,30.05,South,170,3.0,7.0,93,0.00,,,0.04,,2013-07-21 06:32:00,
2013-07-21 02:52:00,67.0,65.0,30.04,SSE,160,3.0,9.0,93,0.00,,,0.04,,2013-07-21 06:52:00,
2013-07-21 03:01:00,67.0,65.0,30.04,SSE,167,3.0,8.0,93,0.00,,,0.04,,2013-07-21 07:01:00,
2013-07-21 03:11:00,67.0,65.0,30.03,South,169,3.0,7.0,93,0.00,,,0.04,,2013-07-21 07:11:00,
2013-07-21 03:22:00,67.0,65.0,30.03,South,169,3.0,7.0,93,0.00,,,0.04,,2013-07-21 07:22:00,
2013-07-21 03:32:00,67.0,65.0,30.03,South,175,2.0,9.0,92,0.00,,,0.04,,2013-07-21 07:32:00,
2013-07-21 03:43:00,67.0,65.0,30.03,South,169,3.0,7.0,93,0.00,,,0.04,,2013-07-21 07:43:00,
2013-07-21 03:52:00,67.0,65.0,30.03,South,169,3.0,7.0,93,0.00,,,0.04,,2013-07-21 07:52:00,
2013-07-21 04:02:00,67.0,65.0,30.02,SSE,162,4.0,11.0,94,0.00,,,0.04,,2013-07-21 08:02:00,
2013-07-21 04:11:00,67.0,65.0,30.02,SSE,166,2.0,11.0,92,0.00,,,0.04,,2013-07-21 08:11:00,
2013-07-21 04:22:00,67.0,65.0,30.02,SSE,166,2.0,11.0,92,0.00,,,0.04,,2013-07-21 08:22:00,
2013-07-21 04:33:00,67.0,65.0,30.03,SSE,164,3.0,10.0,92,0.00,,,0.04,,2013-07-21 08:33:00,
2013-07-21 04:43:00,67.0,65.0,30.03,South,169,2.0,7.0,92,0.00,,,0.04,,2013-07-21 08:43:00,
2013-07-21 04:52:00,67.0,65.0,30.03,South,169,2.0,7.0,92,0.00,,,0.04,,2013-07-21 08:52:00,
2013-07-21 05:02:00,67.0,65.0,30.03,SSE,156,2.0,8.0,92,0.00,,,0.04,,2013-07-21 09:02:00,
2013-07-21 05:12:00,67.0,64.0,30.03,SSE,158,0.0,6.0,91,0.00,,,0.04,,2013-07-21 09:12:00,
2013-07-21 05:22:00,67.0,64.0,30.03,SSE,158,0.0,6.0,91,0.00,,,0.04,,2013-07-21 09:22:00,
2013-07-21 05:32:00,67.0,64.0,30.03,SSE,158,1.0,5.0,91,0.00,,,0.04,,2013-07-21 09:32:00,
2013-07-21 05:42:00,67.0,63.0,30.03,SSE,159,0.0,6.0,88,0.00,,,0.04,,2013-07-21 09:42:00,
2013-07-21 05:52:00,67.0,63.0,30.03,SSE,159,0.0,6.0,88,0.00,,,0.04,,2013-07-21 09:52:00,
2013-07-21 06:02:00,67.0,64.0,30.03,SSE,161,0.0,5.0,89,0.00,,,0.04,,2013-07-21 10:02:00,
2013-07-21 06:11:00,67.0,63.0,30.03,SSE,160,1.0,4.0,88,0.00,,,0.04,,2013-07-21 10:11:00,
2013-07-21 06:22:00,67.0,63.0,30.03,SSE,160,1.0,4.0,88,0.00,,,0.04,,2013-07-21 10:22:00,
2013-07-21 06:32:00,67.0,63.0,30.03,SSE,160,0.0,4.0,88,0.00,,,0.04,,2013-07-21 10:32:00,
2013-07-21 06:43:00,67.0,63.0,30.03,SSE,160,0.0,2.0,88,0.00,,,0.04,,2013-07-21 10:43:00,
2013-07-21 06:52:00,67.0,63.0,30.03,SSE,160,0.0,2.0,88,0.00,,,0.04,,2013-07-21 10:52:00,
2013-07-21 07:02:00,67.0,63.0,30.04,SSE,160,0.0,3.0,88,0.00,,,0.04,,2013-07-21 11:02:00,
2013-07-21 07:12:00,68.0,64.0,30.04,SSE,160,0.0,2.0,87,0.00,,,0.04,,2013-07-21 11:12:00,
2013-07-21 07:22:00,68.0,64.0,30.04,SSE,160,0.0,2.0,87,0.00,,,0.04,,2013-07-21 11:22:00,
2013-07-21 07:33:00,69.0,65.0,30.04,SSE,160,1.0,5.0,86,0.00,,,0.04,,2013-07-21 11:33:00,
2013-07-21 10:12:00,73.0,67.0,30.08,South,174,1.0,5.0,82,0.00,,,0.04,,2013-07-21 14:12:00,
2013-07-21 10:23:00,73.0,67.0,30.08,South,174,1.0,5.0,82,0.00,,,0.04,,2013-07-21 14:23:00,
2013-07-21 10:32:00,72.0,67.0,30.08,South,174,0.0,4.0,83,0.00,,,0.04,,2013-07-21 14:32:00,
2013-07-21 10:43:00,72.0,66.0,30.08,South,174,0.0,4.0,82,0.00,,,0.04,,2013-07-21 14:43:00,
2013-07-21 10:53:00,72.0,66.0,30.08,South,174,0.0,4.0,82,0.00,,,0.04,,2013-07-21 14:53:00,
2013-07-21 11:02:00,73.0,68.0,30.09,South,174,0.0,3.0,83,0.00,,,0.04,,2013-07-21 15:02:00,
2013-07-21 11:11:00,73.0,68.0,30.09,South,174,0.0,3.0,83,0.00,,,0.04,,2013-07-21 15:11:00,
2013-07-21 11:22:00,73.0,68.0,30.09,South,174,0.0,3.0,83,0.00,,,0.04,,2013-07-21 15:22:00,
2013-07-21 11:32:00,74.0,68.0,30.09,South,174,0.0,5.0,81,0.00,,,0.04,,2013-07-21 15:32:00,
2013-07-21 11:43:00,76.0,68.0,30.09,South,174,1.0,4.0,77,0.00,,,0.04,,2013-07-21 15:43:00,
2013-07-21 11:53:00,76.0,68.0,30.09,South,174,1.0,4.0,77,0.00,,,0.04,,2013-07-21 15:53:00,
2013-07-21 12:01:00,78.0,68.0,30.09,South,174,0.0,4.0,72,0.00,,,0.04,,2013-07-21 16:01:00,
2013-07-21 12:11:00,79.0,70.0,30.09,South,175,0.0,3.0,75,0.00,,,0.04,,2013-07-21 16:11:00,
2013-07-21 12:22:00,79.0,70.0,30.09,South,175,0.0,3.0,75,0.00,,,0.04,,2013-07-21 16:22:00,
2013-07-21 13:11:00,79.0,72.0,30.08,South,174,0.0,2.0,78,0.00,,,0.04,,2013-07-21 17:11:00,
2013-07-21 13:22:00,79.0,72.0,30.08,South,174,0.0,2.0,78,0.00,,,0.04,,2013-07-21 17:22:00,
2013-07-21 13:33:00,78.0,71.0,30.07,South,174,0.0,2.0,80,0.00,,,0.04,,2013-07-21 17:33:00,
2013-07-21 13:43:00,77.0,71.0,30.07,South,174,1.0,3.0,83,0.00,,,0.04,,2013-07-21 17:43:00,
2013-07-21 13:53:00,77.0,71.0,30.07,South,174,1.0,3.0,83,0.00,,,0.04,,2013-07-21 17:53:00,
2013-07-21 14:01:00,78.0,72.0,30.06,South,174,1.0,3.0,82,0.00,,,0.04,,2013-07-21 18:01:00,
2013-07-21 14:11:00,76.0,70.0,30.06,South,175,2.0,6.0,82,0.00,,,0.04,,2013-07-21 18:11:00,
2013-07-21 14:22:00,76.0,70.0,30.06,South,175,2.0,6.0,82,0.00,,,0.04,,2013-07-21 18:22:00,
2013-07-21 14:32:00,72.0,68.0,30.05,South,187,1.0,4.0,87,0.00,,,0.04,,2013-07-21 18:32:00,
2013-07-21 14:43:00,72.0,67.0,30.05,South,187,2.0,5.0,84,0.00,,,0.04,,2013-07-21 18:43:00,
2013-07-21 14:52:00,72.0,67.0,30.05,South,187,2.0,5.0,84,0.00,,,0.04,,2013-07-21 18:52:00,
2013-07-21 15:01:00,74.0,68.0,30.04,South,184,2.0,4.0,81,0.00,,,0.04,,2013-07-21 19:01:00,
2013-07-21 15:22:00,72.0,67.0,30.04,South,184,0.0,5.0,83,0.00,,,0.04,,2013-07-21 19:22:00,
2013-07-21 15:32:00,71.0,67.0,30.04,South,184,0.0,1.0,86,0.00,,,0.02,,2013-07-21 19:32:00,
2013-07-21 15:42:00,68.0,64.0,30.05,South,184,0.0,2.0,87,0.57,,,0.60,,2013-07-21 19:42:00,
2013-07-21 15:52:00,68.0,64.0,30.05,South,184,0.0,2.0,87,0.57,,,0.60,,2013-07-21 19:52:00,
2013-07-21 16:02:00,66.0,64.0,30.06,South,184,0.0,4.0,93,1.49,,,1.51,,2013-07-21 20:02:00,
2013-07-21 16:12:00,66.0,65.0,30.06,South,184,0.0,2.0,95,1.50,,,1.52,,2013-07-21 20:12:00,
2013-07-21 16:22:00,66.0,65.0,30.06,South,184,0.0,2.0,95,1.50,,,1.52,,2013-07-21 20:22:00,
2013-07-21 16:32:00,67.0,66.0,30.06,South,184,0.0,1.0,95,1.50,,,1.50,,2013-07-21 20:32:00,
2013-07-21 16:43:00,69.0,68.0,30.05,South,184,0.0,1.0,95,0.86,,,1.50,,2013-07-21 20:43:00,
2013-07-21 16:52:00,69.0,68.0,30.05,South,184,0.0,1.0,95,0.86,,,1.50,,2013-07-21 20:52:00,
2013-07-21 17:01:00,69.0,67.0,30.05,South,184,1.0,3.0,94,0.01,,,1.50,,2013-07-21 21:01:00,
2013-07-21 17:11:00,70.0,68.0,30.05,South,184,0.0,3.0,93,0.00,,,1.50,,2013-07-21 21:11:00,
2013-07-21 17:22:00,70.0,68.0,30.05,South,184,0.0,3.0,93,0.00,,,1.50,,2013-07-21 21:22:00,
2013-07-21 17:32:00,71.0,69.0,30.04,South,184,0.0,2.0,93,0.00,,,1.50,,2013-07-21 21:32:00,
2013-07-21 17:43:00,71.0,67.0,30.04,South,184,0.0,1.0,88,0.00,,,1.50,,2013-07-21 21:43:00,
2013-07-21 17:52:00,71.0,67.0,30.04,South,184,0.0,1.0,88,0.00,,,1.50,,2013-07-21 21:52:00,
2013-07-21 18:01:00,70.0,66.0,30.04,South,184,0.0,1.0,88,0.00,,,1.50,,2013-07-21 22:01:00,
2013-07-21 18:11:00,69.0,66.0,30.03,South,184,0.0,1.0,90,0.00,,,1.50,,2013-07-21 22:11:00,
2013-07-21 18:22:00,69.0,66.0,30.03,South,184,0.0,1.0,90,0.00,,,1.50,,2013-07-21 22:22:00,
2013-07-21 18:32:00,68.0,65.0,30.03,South,181,1.0,5.0,91,0.00,,,1.50,,2013-07-21 22:32:00,
2013-07-21 18:43:00,69.0,66.0,30.03,South,172,0.0,8.0,90,0.00,,,1.50,,2013-07-21 22:43:00,
2013-07-21 18:52:00,69.0,66.0,30.03,South,172,0.0,8.0,90,0.00,,,1.50,,2013-07-21 22:52:00,
2013-07-21 19:02:00,68.0,65.0,30.03,South,172,1.0,3.0,90,0.00,,,1.50,,2013-07-21 23:02:00,
2013-07-21 19:11:00,68.0,65.0,30.02,South,172,1.0,5.0,90,0.00,,,1.50,,2013-07-21 23:11:00,
2013-07-21 19:22:00,68.0,65.0,30.02,South,172,1.0,5.0,90,0.00,,,1.50,,2013-07-21 23:22:00,
2013-07-21 19:32:00,67.0,64.0,30.02,South,172,2.0,7.0,90,0.00,,,1.50,,2013-07-21 23:32:00,
2013-07-21 19:42:00,67.0,64.0,30.02,South,172,1.0,5.0,91,0.00,,,1.50,,2013-07-21 23:42:00,
2013-07-21 19:53:00,67.0,64.0,30.02,South,172,1.0,5.0,91,0.00,,,1.50,,2013-07-21 23:53:00,
2013-07-21 20:01:00,66.0,63.0,30.02,South,172,1.0,5.0,91,0.00,,,1.50,,2013-07-22 00:01:00,
2013-07-21 20:11:00,66.0,63.0,30.03,South,172,1.0,5.0,91,0.02,,,1.52,,2013-07-22 00:11:00,
2013-07-21 20:22:00,66.0,63.0,30.03,South,172,1.0,5.0,91,0.02,,,1.52,,2013-07-22 00:22:00,
2013-07-21 20:32:00,66.0,64.0,30.03,South,172,1.0,4.0,92,0.02,,,1.52,,2013-07-22 00:32:00,
2013-07-21 20:52:00,66.0,64.0,30.03,SSE,165,3.0,8.0,93,0.02,,,1.52,,2013-07-22 00:52:00,
2013-07-21 21:02:00,66.0,64.0,30.03,SSE,165,1.0,5.0,93,0.02,,,1.52,,2013-07-22 01:02:00,
2013-07-21 21:11:00,66.0,63.0,30.03,SSE,165,1.0,5.0,91,0.00,,,1.52,,2013-07-22 01:11:00,
2013-07-21 21:22:00,66.0,63.0,30.03,SSE,165,1.0,5.0,91,0.00,,,1.52,,2013-07-22 01:22:00,
2013-07-21 21:32:00,66.0,62.0,30.03,SSE,165,0.0,4.0,87,0.00,,,1.52,,2013-07-22 01:32:00,
2013-07-21 21:42:00,66.0,62.0,30.04,SSE,165,0.0,3.0,87,0.00,,,1.52,,2013-07-22 01:42:00,
2013-07-21 21:52:00,66.0,62.0,30.04,SSE,165,0.0,3.0,87,0.00,,,1.52,,2013-07-22 01:52:00,
2013-07-21 22:02:00,66.0,63.0,30.05,SSE,165,1.0,5.0,90,0.00,,,1.52,,2013-07-22 02:02:00,
2013-07-21 22:22:00,66.0,63.0,30.05,SSE,159,1.0,6.0,91,0.00,,,1.52,,2013-07-22 02:22:00,
2013-07-21 22:32:00,66.0,63.0,30.06,SSE,159,0.0,2.0,91,0.00,,,1.52,,2013-07-22 02:32:00,
2013-07-21 22:43:00,66.0,63.0,30.06,SSE,159,0.0,3.0,91,0.00,,,1.52,,2013-07-22 02:43:00,
2013-07-21 22:52:00,66.0,63.0,30.06,SSE,159,0.0,3.0,91,0.00,,,1.52,,2013-07-22 02:52:00,
2013-07-21 23:01:00,66.0,63.0,30.06,SSE,159,0.0,3.0,91,0.00,,,1.52,,2013-07-22 03:01:00,
2013-07-21 23:12:00,66.0,64.0,30.06,SSE,159,1.0,6.0,92,0.00,,,1.52,,2013-07-22 03:12:00,
2013-07-21 23:22:00,66.0,64.0,30.06,SSE,159,1.0,6.0,92,0.00,,,1.52,,2013-07-22 03:22:00,
2013-07-21 23:33:00,66.0,63.0,30.06,SSE,156,1.0,8.0,90,0.00,,,1.52,,2013-07-22 03:33:00,
2013-07-21 23:43:00,66.0,63.0,30.07,SSE,157,1.0,6.0,89,0.00,,,1.52,,2013-07-22 03:43:00,
2013-07-21 23:53:00,66.0,63.0,30.07,SSE,157,1.0,6.0,89,0.00,,,1.52,,2013-07-22 03:53:00,